Time;durP1;ratioP1;P1;durP2;ratioP2;P2;SDS_P1;SDS_P2;PMS_P1;PMS_P2;Temp;Humidity;BMP_temperature;BMP_pressure;BME280_temperature;BME280_humidity;BME280_pressure;Samples;Min_cycle;Max_cycle;Signal;HPM_P1;HPM_P2
2022/07/22 00:00:42;;;;;;;6.33;3.60;;;17.70;99.90;;;;;;20752728;28;20044;-75
2022/07/22 00:10:43;;;;;;;5.17;3.63;;;17.70;99.90;;;;;;20752174;28;20076;-75
2022/07/22 00:20:44;;;;;;;5.53;3.97;;;18.20;99.90;;;;;;20751189;28;20066;-75
2022/07/22 00:30:45;;;;;;;6.57;4.07;;;18.40;99.90;;;;;;20757761;28;20037;-75
2022/07/22 00:40:45;;;;;;;7.07;4.30;;;18.30;99.90;;;;;;20749041;28;20084;-75
2022/07/22 00:50:46;;;;;;;5.33;3.77;;;18.40;99.90;;;;;;20749132;28;20034;-75
2022/07/22 01:00:47;;;;;;;6.20;3.90;;;18.50;99.90;;;;;;20748288;28;20065;-75
2022/07/22 01:10:48;;;;;;;6.20;4.13;;;17.70;99.90;;;;;;20747499;28;20144;-75
2022/07/22 01:20:49;;;;;;;6.30;3.87;;;17.40;99.90;;;;;;20730102;28;20049;-75
2022/07/22 01:30:51;;;;;;;8.63;4.30;;;17.20;99.90;;;;;;20745194;28;20093;-75
2022/07/22 01:40:52;;;;;;;;;;;16.90;99.90;;;;;;20744809;28;20080;-75
2022/07/22 01:50:53;;;;;;;7.68;4.72;;;17.10;99.90;;;;;;20743743;28;19914;-75
2022/07/22 02:00:54;;;;;;;7.38;4.78;;;17.20;99.90;;;;;;20743034;28;20045;-75
2022/07/22 02:10:55;;;;;;;6.07;4.80;;;17.00;99.90;;;;;;20744295;28;20034;-75
2022/07/22 02:20:57;;;;;;;5.70;4.40;;;17.00;99.90;;;;;;20751087;28;20042;-75
2022/07/22 02:31:00;;;;;;;8.13;4.72;;;16.80;99.90;;;;;;20741506;28;20092;-75
2022/07/22 02:41:01;;;;;;;7.10;4.33;;;16.50;99.90;;;;;;20742297;28;20126;-75
2022/07/22 02:51:03;;;;;;;8.10;4.83;;;16.30;99.90;;;;;;20724374;28;20064;-75
2022/07/22 03:01:04;;;;;;;8.75;4.38;;;16.00;99.90;;;;;;20750015;28;20482;-75
2022/07/22 03:11:11;;;;;;;8.18;4.35;;;16.10;99.90;;;;;;20755430;28;20434;-75
2022/07/22 03:21:12;;;;;;;6.63;4.10;;;16.20;99.90;;;;;;20754747;28;20120;-74
2022/07/22 03:31:13;;;;;;;7.00;4.97;;;16.30;99.90;;;;;;20738763;28;20038;-75
2022/07/22 03:41:14;;;;;;;9.05;4.82;;;15.90;99.90;;;;;;20754642;28;20034;-74
2022/07/22 03:51:16;;;;;;;;;;;15.70;99.90;;;;;;20736568;28;20045;-77
2022/07/22 04:01:18;;;;;;;9.07;5.00;;;15.50;99.90;;;;;;20752576;28;19913;-77
2022/07/22 04:11:19;;;;;;;7.13;4.63;;;15.60;99.90;;;;;;20742760;28;20038;-77
2022/07/22 04:21:20;;;;;;;7.80;4.97;;;15.80;99.90;;;;;;20734465;28;20048;-77
2022/07/22 04:31:28;;;;;;;6.38;4.72;;;16.10;99.90;;;;;;20733827;28;20084;-77
2022/07/22 04:41:36;;;;;;;8.30;4.72;;;16.30;99.90;;;;;;20750441;28;20514;-77
2022/07/22 04:51:36;;;;;;;11.10;5.00;;;16.40;99.90;;;;;;20750199;28;20049;-77
2022/07/22 05:01:40;;;;;;;8.05;4.75;;;16.80;99.90;;;;;;20733838;28;20129;-77
2022/07/22 05:11:41;;;;;;;5.65;4.68;;;16.90;99.90;;;;;;20715499;28;20042;-77
2022/07/22 05:21:43;;;;;;;15.98;4.88;;;17.20;99.90;;;;;;20664077;28;20046;-78
2022/07/22 05:31:44;;;;;;;8.63;5.57;;;17.50;99.90;;;;;;20664980;28;20141;-76
2022/07/22 05:41:45;;;;;;;;;;;17.80;99.90;;;;;;20665571;28;20035;-76
2022/07/22 05:51:46;;;;;;;20.23;9.80;;;18.10;99.90;;;;;;20646177;28;19968;-76
2022/07/22 06:01:47;;;;;;;9.67;6.00;;;18.50;99.90;;;;;;20673009;28;20042;-77
2022/07/22 06:12:08;;;;;;;8.48;5.35;;;19.00;99.90;;;;;;20654058;28;20069;-78
2022/07/22 06:22:10;;;;;;;7.75;5.28;;;19.70;99.90;;;;;;20662770;28;20557;-76
2022/07/22 06:32:12;;;;;;;9.68;5.30;;;20.40;99.90;;;;;;20649326;28;20166;-77
2022/07/22 06:42:14;;;;;;;7.97;4.80;;;20.90;99.90;;;;;;20678908;28;20042;-77
2022/07/22 06:52:40;;;;;;;7.18;5.15;;;21.30;99.90;;;;;;20672290;28;20046;-77
2022/07/22 07:02:41;;;;;;;9.75;5.30;;;22.00;99.90;;;;;;20663427;28;20102;-78
2022/07/22 07:12:42;;;;;;;8.70;5.05;;;22.60;99.90;;;;;;20679059;28;20432;-77
2022/07/22 07:22:43;;;;;;;9.32;4.93;;;23.30;99.90;;;;;;20681434;28;20096;-77
2022/07/22 07:32:44;;;;;;;;;;;23.90;99.90;;;;;;20679532;28;20034;-76
2022/07/22 07:42:46;;;;;;;5.78;4.63;;;24.70;99.90;;;;;;20695262;23;19924;-76
2022/07/22 07:52:50;;;;;;;6.45;4.32;;;24.90;99.90;;;;;;20835346;28;20041;-77
2022/07/22 08:02:51;;;;;;;5.63;4.05;;;25.30;99.90;;;;;;20850230;28;20037;-76
2022/07/22 08:12:54;;;;;;;6.20;4.38;;;26.10;99.90;;;;;;20833027;28;20033;-77
2022/07/22 08:23:05;;;;;;;11.27;4.88;;;26.60;99.90;;;;;;20834028;28;20037;-78
2022/07/22 08:33:08;;;;;;;6.28;4.30;;;27.00;99.90;;;;;;20837343;28;20497;-77
2022/07/22 08:43:11;;;;;;;8.35;4.82;;;27.20;99.90;;;;;;20836014;28;20285;-78
2022/07/22 08:53:12;;;;;;;12.70;5.68;;;27.60;99.90;;;;;;20835730;28;20038;-78
2022/07/22 09:03:21;;;;;;;13.02;5.95;;;28.80;99.90;;;;;;20837975;28;20041;-75
2022/07/22 09:13:24;;;;;;;11.82;5.20;;;29.40;99.90;;;;;;20831967;28;20417;-77
2022/07/22 09:23:43;;;;;;;8.43;4.63;;;28.80;99.90;;;;;;20831225;28;20482;-77
2022/07/22 09:33:46;;;;;;;5.78;4.07;;;29.10;99.90;;;;;;20828583;28;20033;-77
2022/07/22 09:43:55;;;;;;;7.20;4.40;;;30.30;99.90;;;;;;20844095;28;20096;-77
2022/07/22 09:53:57;;;;;;;6.30;4.25;;;30.70;99.90;;;;;;20826651;28;20045;-77
2022/07/22 10:04:05;;;;;;;6.45;3.92;;;31.70;99.90;;;;;;20827173;28;20041;-77
2022/07/22 10:14:07;;;;;;;5.35;3.88;;;32.20;99.90;;;;;;20840661;28;20125;-77
2022/07/22 10:24:13;;;;;;;8.27;3.78;;;32.60;99.90;;;;;;20824633;28;20041;-77
2022/07/22 10:34:23;;;;;;;6.28;4.15;;;32.10;99.90;;;;;;20826112;28;20409;-77
2022/07/22 10:44:50;;;;;;;7.78;4.55;;;32.20;99.90;;;;;;20824312;28;20048;-77
2022/07/22 10:55:20;;;;;;;6.38;4.30;;;31.70;99.90;;;;;;20808874;28;20049;-75
2022/07/22 11:05:26;;;;;;;5.18;4.47;;;32.20;99.90;;;;;;20759257;28;20502;-78
2022/07/22 11:15:27;;;;;;;7.13;4.57;;;33.20;99.90;;;;;;20744535;28;20029;-78
2022/07/22 11:25:28;;;;;;;9.00;4.65;;;32.40;99.90;;;;;;20777582;28;20030;-77
2022/07/22 11:35:29;;;;;;;7.35;4.78;;;33.80;99.90;;;;;;20793177;28;20045;-77
2022/07/22 11:45:31;;;;;;;8.25;5.25;;;33.60;99.90;;;;;;20817896;28;20144;-77
2022/07/22 11:55:33;;;;;;;6.50;5.07;;;34.20;99.90;;;;;;20839429;28;20041;-77
2022/07/22 12:05:34;;;;;;;8.98;4.97;;;34.10;99.90;;;;;;20842180;28;20180;-77
2022/07/22 12:15:35;;;;;;;9.73;5.40;;;33.90;99.90;;;;;;20814372;28;20760;-77
2022/07/22 12:25:53;;;;;;;6.40;5.15;;;34.40;98.20;;;;;;20814135;28;20044;-77
2022/07/22 12:36:01;;;;;;;6.63;5.22;;;34.40;99.00;;;;;;20812354;28;20041;-77
2022/07/22 12:46:03;;;;;;;8.95;5.03;;;35.00;98.50;;;;;;20815071;28;20132;-78
2022/07/22 12:56:07;;;;;;;6.53;4.68;;;35.50;97.20;;;;;;20813598;28;20489;-77
2022/07/22 13:06:10;;;;;;;7.10;4.63;;;36.00;95.80;;;;;;20809494;28;20052;-77
2022/07/22 13:16:11;;;;;;;6.00;4.38;;;36.70;95.80;;;;;;20810521;28;20037;-77
2022/07/22 13:26:12;;;;;;;8.30;5.05;;;35.80;92.90;;;;;;20824050;28;20033;-77
2022/07/22 13:36:13;;;;;;;9.05;4.60;;;35.00;92.30;;;;;;20808857;28;20052;-77
2022/07/22 13:46:14;;;;;;;8.20;4.93;;;35.40;92.00;;;;;;20833480;23;20065;-75
2022/07/22 13:56:15;;;;;;;8.52;4.85;;;35.70;90.70;;;;;;20853588;28;20044;-75
2022/07/22 14:06:15;;;;;;;6.55;4.70;;;35.40;90.00;;;;;;20845915;28;20041;-75
2022/07/22 14:16:34;;;;;;;7.20;4.63;;;35.00;89.70;;;;;;20858094;28;20128;-75
2022/07/22 14:26:37;;;;;;;7.82;4.72;;;35.00;89.70;;;;;;20859284;28;20056;-75
2022/07/22 14:36:38;;;;;;;6.97;4.57;;;35.40;88.20;;;;;;20848611;28;20869;-75
2022/07/22 14:46:39;;;;;;;8.85;4.25;;;35.20;89.30;;;;;;20845578;28;20111;-75
2022/07/22 14:56:40;;;;;;;8.02;4.40;;;34.80;89.50;;;;;;20868446;28;20045;-75
2022/07/22 15:06:41;;;;;;;5.55;3.80;;;34.80;87.50;;;;;;20862657;28;20703;-75
2022/07/22 15:16:42;;;;;;;7.05;3.72;;;34.80;84.40;;;;;;20857404;28;20041;-75
2022/07/22 15:26:42;;;;;;;5.13;4.00;;;35.50;83.20;;;;;;20845194;28;20052;-75
2022/07/22 15:36:43;;;;;;;5.00;3.80;;;34.90;83.10;;;;;;20840266;28;20420;-75
2022/07/22 15:46:44;;;;;;;6.20;3.65;;;34.30;82.60;;;;;;20854873;28;20040;-75
2022/07/22 15:56:45;;;;;;;4.65;3.60;;;34.50;85.00;;;;;;20890244;28;20052;-75
2022/07/22 16:06:46;;;;;;;5.53;3.75;;;34.10;85.60;;;;;;20898153;28;20029;-75
2022/07/22 16:16:47;;;;;;;12.70;4.65;;;33.80;87.30;;;;;;20900850;28;20560;-74
2022/07/22 16:26:47;;;;;;;6.97;4.17;;;33.10;90.60;;;;;;20857723;28;20058;-75
2022/07/22 16:36:48;;;;;;;6.53;4.70;;;33.10;91.60;;;;;;20812996;28;20279;-75
2022/07/22 16:46:49;;;;;;;6.20;4.85;;;32.70;91.70;;;;;;20814420;28;20304;-75
2022/07/22 16:56:50;;;;;;;6.80;4.38;;;32.50;93.00;;;;;;20892652;28;20367;-74
2022/07/22 17:06:51;;;;;;;6.63;4.65;;;32.20;93.60;;;;;;20891160;28;20128;-75
2022/07/22 17:16:51;;;;;;;7.68;4.50;;;31.80;94.30;;;;;;20892173;28;20413;-75
2022/07/22 17:26:52;;;;;;;24.70;5.00;;;31.50;94.70;;;;;;20890790;28;20128;-75
2022/07/22 17:36:53;;;;;;;9.43;4.15;;;31.40;95.10;;;;;;20885182;28;20367;-75
2022/07/22 17:46:54;;;;;;;12.88;4.50;;;31.00;95.00;;;;;;20872002;28;20040;-75
2022/07/22 17:56:55;;;;;;;9.13;4.55;;;30.60;95.30;;;;;;20864757;28;20029;-74
2022/07/22 18:06:58;;;;;;;9.98;4.50;;;30.40;95.50;;;;;;20864180;28;20033;-75
2022/07/22 18:16:59;;;;;;;5.07;3.95;;;29.80;97.60;;;;;;20868970;28;20037;-78
2022/07/22 18:27:00;;;;;;;5.82;4.10;;;29.50;97.10;;;;;;20876976;28;20036;-77
2022/07/22 18:37:00;;;;;;;8.23;4.15;;;29.30;98.30;;;;;;20867708;28;20048;-77
2022/07/22 18:47:02;;;;;;;7.93;4.43;;;28.40;99.90;;;;;;20865223;28;20092;-77
2022/07/22 18:57:03;;;;;;;7.22;4.82;;;27.80;99.90;;;;;;20865436;28;20104;-76
2022/07/22 19:07:05;;;;;;;9.68;5.05;;;27.40;99.90;;;;;;20876662;28;20098;-76
2022/07/22 19:17:06;;;;;;;9.73;5.03;;;27.20;99.90;;;;;;20890542;28;20063;-77
2022/07/22 19:27:08;;;;;;;9.93;5.53;;;26.40;99.90;;;;;;20903338;28;20064;-77
2022/07/22 19:37:09;;;;;;;13.70;5.95;;;26.10;99.90;;;;;;20905485;28;20045;-77
2022/07/22 19:47:09;;;;;;;11.55;5.90;;;25.80;99.90;;;;;;20916326;22;20112;-78
2022/07/22 19:57:10;;;;;;;7.78;4.82;;;25.40;99.90;;;;;;20853740;28;20136;-78
2022/07/22 20:07:11;;;;;;;;;;;25.40;99.90;;;;;;20834111;28;20390;-79
2022/07/22 20:17:12;;;;;;;8.30;4.87;;;25.90;99.90;;;;;;20831690;28;19916;-78
2022/07/22 20:27:12;;;;;;;8.23;5.20;;;26.50;99.90;;;;;;20847509;28;20037;-78
2022/07/22 20:37:13;;;;;;;10.10;5.45;;;26.80;99.90;;;;;;20830537;28;20045;-79
2022/07/22 20:47:14;;;;;;;8.25;4.93;;;26.90;99.90;;;;;;20854877;28;20046;-78
2022/07/22 20:57:15;;;;;;;10.20;5.07;;;26.90;99.90;;;;;;20850651;28;20044;-79
2022/07/22 21:07:16;;;;;;;10.25;5.03;;;26.80;99.90;;;;;;20849400;28;20033;-78
2022/07/22 21:17:17;;;;;;;7.93;5.30;;;26.60;99.90;;;;;;20848996;28;20033;-78
2022/07/22 21:27:18;;;;;;;10.30;5.60;;;26.00;99.90;;;;;;20852196;28;20037;-78
2022/07/22 21:37:21;;;;;;;12.85;5.97;;;25.80;99.90;;;;;;20806050;28;20037;-77
2022/07/22 21:47:22;;;;;;;14.85;6.82;;;25.10;99.90;;;;;;20808209;28;20119;-77
2022/07/22 21:57:23;;;;;;;10.60;5.97;;;23.00;99.90;;;;;;20818490;28;20354;-76
2022/07/22 22:07:24;;;;;;;10.23;6.47;;;22.50;99.90;;;;;;20811759;28;20041;-77
2022/07/22 22:17:25;;;;;;;13.27;5.77;;;21.90;99.90;;;;;;20771953;28;20115;-75
2022/07/22 22:27:26;;;;;;;10.20;5.80;;;21.60;99.90;;;;;;20800587;28;20033;-77
2022/07/22 22:37:26;;;;;;;11.00;6.37;;;21.60;99.90;;;;;;20847490;28;20053;-78
2022/07/22 22:47:27;;;;;;;11.90;6.33;;;21.20;99.90;;;;;;20853517;28;20523;-78
2022/07/22 22:57:29;;;;;;;9.50;6.80;;;21.40;99.90;;;;;;20848293;28;20044;-78
2022/07/22 23:07:30;;;;;;;8.43;6.32;;;20.80;99.90;;;;;;20848682;28;20054;-79
2022/07/22 23:17:31;;;;;;;11.77;6.33;;;21.20;99.90;;;;;;20852455;28;20099;-79
2022/07/22 23:27:32;;;;;;;10.77;6.83;;;20.80;99.90;;;;;;20861210;28;20041;-78
2022/07/22 23:37:33;;;;;;;13.43;7.30;;;21.20;99.90;;;;;;20830112;28;20052;-77
2022/07/22 23:47:33;;;;;;;10.47;6.67;;;20.80;99.90;;;;;;20848392;28;20095;-78
2022/07/22 23:57:34;;;;;;;11.50;6.73;;;20.70;99.90;;;;;;20855426;28;20539;-78
